createdAt,value
2022-09-06T00:00:16.910Z,2.78
2022-09-06T00:02:45.005Z,2.90
2022-09-06T00:05:17.016Z,2.42
2022-09-06T00:07:46.094Z,2.60
2022-09-06T00:10:13.475Z,2.80
2022-09-06T00:12:43.036Z,2.63
2022-09-06T00:15:10.244Z,2.40
2022-09-06T00:17:39.748Z,2.60
2022-09-06T00:20:09.351Z,2.50
2022-09-06T00:22:36.774Z,2.90
2022-09-06T00:25:07.776Z,2.67
2022-09-06T00:27:34.859Z,2.92
2022-09-06T00:30:04.540Z,2.70
2022-09-06T00:32:34.172Z,2.60
2022-09-06T00:35:03.096Z,2.90
2022-09-06T00:37:29.797Z,2.65
2022-09-06T00:39:56.583Z,2.80
2022-09-06T00:42:23.491Z,2.70
2022-09-06T00:44:50.623Z,3.13
2022-09-06T00:47:17.683Z,3.30
2022-09-06T00:49:47.414Z,2.90
2022-09-06T00:52:18.895Z,2.67
2022-09-06T00:54:47.348Z,3.15
2022-09-06T00:57:17.724Z,2.80
2022-09-06T00:59:46.204Z,2.70
2022-09-06T01:02:15.761Z,2.80
2022-09-06T01:04:45.415Z,2.28
2022-09-06T01:07:34.515Z,2.35
2022-09-06T01:10:22.982Z,2.00
2022-09-06T01:13:14.014Z,2.33
2022-09-06T01:16:03.053Z,2.13
2022-09-06T01:19:07.470Z,2.47
2022-09-06T01:21:52.584Z,2.50
2022-09-06T01:24:31.186Z,2.75
2022-09-06T01:27:12.856Z,3.50
2022-09-06T01:29:58.454Z,2.85
2022-09-06T01:32:43.170Z,2.72
2022-09-06T01:35:28.798Z,2.70
2022-09-06T01:37:57.142Z,2.45
2022-09-06T01:40:23.826Z,2.65
2022-09-06T01:42:53.307Z,2.60
2022-09-06T01:45:32.804Z,2.67
2022-09-06T01:48:09.431Z,2.80
2022-09-06T01:50:47.570Z,3.35
2022-09-06T01:53:25.421Z,3.05
2022-09-06T01:55:58.988Z,2.65
2022-09-06T01:59:02.299Z,3.40
2022-09-06T02:01:42.325Z,2.97
2022-09-06T02:04:30.523Z,3.15
2022-09-06T02:07:24.816Z,3.08
2022-09-06T02:12:26.999Z,2.83
2022-09-06T02:14:58.834Z,3.00
2022-09-06T02:17:41.580Z,3.25
2022-09-06T02:20:18.900Z,3.10
2022-09-06T02:22:48.000Z,2.63
2022-09-06T02:25:23.948Z,2.80
2022-09-06T02:27:50.887Z,3.00
2022-09-06T02:30:17.768Z,2.97
2022-09-06T02:32:59.259Z,2.50
2022-09-06T02:35:26.298Z,2.83
2022-09-06T02:37:53.098Z,3.03
2022-09-06T02:40:20.347Z,3.17
2022-09-06T02:42:47.142Z,2.63
2022-09-06T02:45:14.187Z,3.10
2022-09-06T02:47:45.590Z,2.95
2022-09-06T02:50:13.262Z,3.13
2022-09-06T02:52:39.972Z,3.30
2022-09-06T02:55:07.567Z,3.55
2022-09-06T02:57:35.375Z,3.35
2022-09-06T03:00:02.630Z,4.00
2022-09-06T03:02:29.478Z,3.33
2022-09-06T03:04:56.254Z,3.38
2022-09-06T03:07:25.323Z,3.22
2022-09-06T03:09:52.104Z,3.03
2022-09-06T03:12:21.029Z,3.20
2022-09-06T03:14:50.157Z,3.03
2022-09-06T03:17:19.945Z,3.58
2022-09-06T03:19:46.658Z,3.00
2022-09-06T03:22:13.567Z,3.33
2022-09-06T03:24:42.440Z,3.47
2022-09-06T03:27:09.146Z,3.20
2022-09-06T03:29:35.944Z,3.22
2022-09-06T03:32:05.468Z,3.20
2022-09-06T03:34:32.130Z,3.42
2022-09-06T03:37:01.274Z,3.33
2022-09-06T03:39:30.335Z,3.50
2022-09-06T03:41:57.052Z,3.05
2022-09-06T03:44:23.842Z,3.60
2022-09-06T03:46:52.761Z,4.47
2022-09-06T03:49:19.465Z,4.00
2022-09-06T03:51:46.219Z,3.95
2022-09-06T03:54:12.894Z,3.65
2022-09-06T03:56:39.547Z,3.97
2022-09-06T03:59:06.234Z,3.90
2022-09-06T04:01:36.141Z,4.07
2022-09-06T04:04:03.391Z,4.00
2022-09-06T04:06:30.065Z,3.85
2022-09-06T04:08:56.754Z,3.70
2022-09-06T04:11:25.718Z,4.00
2022-09-06T04:13:52.534Z,3.90
2022-09-06T04:16:19.313Z,4.38
2022-09-06T04:18:46.088Z,4.15
2022-09-06T04:21:15.023Z,4.18
2022-09-06T04:23:43.920Z,4.38
2022-09-06T04:26:10.853Z,4.22
2022-09-06T04:28:37.634Z,3.97
2022-09-06T04:31:05.335Z,4.50
2022-09-06T04:33:36.501Z,3.90
2022-09-06T04:36:06.444Z,4.07
2022-09-06T04:38:43.721Z,4.20
2022-09-06T04:41:12.911Z,4.15
2022-09-06T04:43:41.800Z,4.03
2022-09-06T04:46:29.802Z,4.05
2022-09-06T04:48:57.737Z,4.05
2022-09-06T04:51:27.719Z,4.10
2022-09-06T04:53:54.952Z,4.50
2022-09-06T04:56:23.732Z,4.07
2022-09-06T04:58:51.646Z,3.78
2022-09-06T05:01:18.643Z,4.50
2022-09-06T05:03:45.635Z,4.13
2022-09-06T05:06:18.486Z,3.67
2022-09-06T05:08:45.262Z,4.50
2022-09-06T05:11:12.324Z,3.90
2022-09-06T05:13:42.617Z,4.10
2022-09-06T05:16:10.282Z,4.47
2022-09-06T05:18:37.178Z,3.90
2022-09-06T05:21:04.401Z,4.03
2022-09-06T05:23:31.241Z,4.18
2022-09-06T05:25:57.925Z,4.28
2022-09-06T05:28:26.950Z,3.95
2022-09-06T05:30:53.767Z,3.97
2022-09-06T05:33:22.795Z,4.07
2022-09-06T05:35:49.897Z,4.05
2022-09-06T05:38:16.917Z,3.60
2022-09-06T05:40:43.748Z,4.43
2022-09-06T05:43:12.641Z,4.30
2022-09-06T05:45:39.510Z,3.92
2022-09-06T05:48:06.244Z,4.05
2022-09-06T05:50:33.059Z,4.10
2022-09-06T05:52:59.735Z,3.35
2022-09-06T05:55:26.455Z,3.80
2022-09-06T05:57:53.186Z,4.20
2022-09-06T06:00:20.012Z,3.97
2022-09-06T06:02:52.501Z,3.90
2022-09-06T06:05:19.199Z,4.00
2022-09-06T06:07:45.927Z,4.05
2022-09-06T06:10:12.618Z,3.85
2022-09-06T06:12:43.774Z,4.07
2022-09-06T06:15:11.029Z,3.85
2022-09-06T06:17:37.744Z,4.38
2022-09-06T06:20:07.228Z,3.78
2022-09-06T06:22:34.098Z,4.00
2022-09-06T06:25:00.901Z,4.00
2022-09-06T06:27:34.780Z,3.97
2022-09-06T06:30:01.474Z,3.80
2022-09-06T06:32:30.459Z,3.55
2022-09-06T06:34:57.149Z,4.00
2022-09-06T06:37:23.847Z,4.03
2022-09-06T06:39:50.606Z,4.03
2022-09-06T06:42:17.274Z,3.65
2022-09-06T06:44:43.947Z,3.45
2022-09-06T06:47:13.125Z,3.80
2022-09-06T06:49:39.947Z,3.75
2022-09-06T06:52:07.140Z,3.25
2022-09-06T06:54:33.873Z,3.55
2022-09-06T06:57:00.537Z,3.40
2022-09-06T06:59:27.287Z,3.70
2022-09-06T07:01:56.384Z,3.85
2022-09-06T07:04:25.329Z,3.60
2022-09-06T07:12:28.659Z,3.30
2022-09-06T07:14:55.558Z,3.60
2022-09-06T07:17:22.284Z,3.80
2022-09-06T07:22:35.835Z,3.70
2022-09-06T07:25:03.786Z,3.38
2022-09-06T07:30:16.136Z,3.00
2022-09-06T07:32:42.806Z,3.00
2022-09-06T07:35:09.687Z,3.25
2022-09-06T07:37:36.870Z,3.22
2022-09-06T07:40:05.001Z,3.40
2022-09-06T07:42:36.494Z,3.58
2022-09-06T07:45:04.571Z,3.85
2022-09-06T07:53:14.860Z,3.80
2022-09-06T07:55:42.584Z,3.63
2022-09-06T07:58:09.331Z,2.80
2022-09-06T08:00:36.327Z,2.90
2022-09-06T08:03:03.145Z,3.28
2022-09-06T08:11:07.504Z,2.95
2022-09-06T08:13:37.528Z,3.25
2022-09-06T08:16:07.409Z,3.35
2022-09-06T08:18:35.833Z,3.10
2022-09-06T08:21:12.682Z,3.08
2022-09-06T08:23:44.492Z,3.42
2022-09-06T08:26:11.296Z,3.28
2022-09-06T08:28:40.816Z,3.40
2022-09-06T08:31:09.869Z,3.25
2022-09-06T08:33:39.424Z,3.03
2022-09-06T08:36:06.992Z,3.05
2022-09-06T08:38:34.287Z,3.15
2022-09-06T08:41:11.399Z,3.25
2022-09-06T08:43:38.944Z,2.95
2022-09-06T08:46:09.468Z,2.95
2022-09-06T08:48:40.146Z,3.20
2022-09-06T08:51:29.604Z,3.20
2022-09-06T08:54:06.062Z,3.75
2022-09-06T08:56:38.466Z,3.40
2022-09-06T08:59:09.452Z,3.58
2022-09-06T09:01:54.928Z,3.55
2022-09-06T09:04:24.681Z,3.25
2022-09-06T09:06:58.199Z,3.47
2022-09-06T09:11:55.963Z,3.13
2022-09-06T09:14:36.467Z,3.67
2022-09-06T09:17:20.309Z,3.75
2022-09-06T09:22:21.373Z,3.42
2022-09-06T09:24:48.685Z,3.33
2022-09-06T09:27:22.893Z,3.88
2022-09-06T09:32:46.114Z,3.20
2022-09-06T09:35:19.794Z,3.47
2022-09-06T09:37:49.285Z,3.30
2022-09-06T09:40:25.271Z,3.42
2022-09-06T09:42:57.352Z,3.63
2022-09-06T09:45:30.972Z,3.72
2022-09-06T09:48:17.539Z,3.50
2022-09-06T09:50:46.859Z,3.08
2022-09-06T09:53:18.966Z,3.22
2022-09-06T09:55:54.643Z,3.72
2022-09-06T09:58:34.430Z,3.40
2022-09-06T10:01:13.059Z,3.50
2022-09-06T10:09:30.904Z,3.03
2022-09-06T10:11:59.130Z,3.72
2022-09-06T10:14:29.524Z,3.30
2022-09-06T10:16:56.942Z,3.03
2022-09-06T10:19:35.505Z,2.85
2022-09-06T10:22:28.088Z,3.00
2022-09-06T10:25:05.009Z,3.15
2022-09-06T10:27:33.145Z,3.38
2022-09-06T10:30:04.990Z,3.45
2022-09-06T10:32:43.797Z,3.30
2022-09-06T10:35:16.106Z,3.00
2022-09-06T10:37:45.919Z,3.53
2022-09-06T10:40:37.247Z,3.42
2022-09-06T10:43:06.173Z,3.08
2022-09-06T10:45:44.212Z,3.38
2022-09-06T10:48:20.940Z,3.33
2022-09-06T10:50:58.539Z,3.05
2022-09-06T10:53:44.411Z,3.50
2022-09-06T10:56:23.039Z,3.13
2022-09-06T11:02:27.640Z,3.10
2022-09-06T11:10:45.390Z,3.00
2022-09-06T11:16:28.034Z,3.78
2022-09-06T11:19:21.467Z,2.60
2022-09-06T11:22:19.940Z,3.03
2022-09-06T11:25:19.700Z,2.85
2022-09-06T11:27:57.948Z,2.60
2022-09-06T11:30:27.341Z,3.00
2022-09-06T11:33:24.680Z,2.72
2022-09-06T11:35:54.461Z,3.05
2022-09-06T11:38:28.255Z,2.97
2022-09-06T11:41:02.610Z,2.92
2022-09-06T11:44:01.469Z,2.72
2022-09-06T11:46:53.976Z,2.83
2022-09-06T11:49:37.218Z,2.80
2022-09-06T11:54:53.530Z,2.70
2022-09-06T11:57:24.523Z,3.08
2022-09-06T12:00:00.912Z,3.45
2022-09-06T12:02:35.164Z,2.92
2022-09-06T12:05:03.789Z,3.00
2022-09-06T12:07:32.407Z,2.60
2022-09-06T12:10:22.975Z,2.60
2022-09-06T12:12:52.559Z,2.50
2022-09-06T12:15:32.946Z,3.13
2022-09-06T12:18:00.702Z,2.88
2022-09-06T12:20:51.035Z,2.70
2022-09-06T12:23:38.621Z,2.65
2022-09-06T12:26:09.267Z,2.30
2022-09-06T12:28:52.653Z,2.72
2022-09-06T12:31:36.516Z,2.65
2022-09-06T12:34:09.907Z,2.47
2022-09-06T12:36:56.509Z,2.38
2022-09-06T12:39:24.361Z,2.42
2022-09-06T12:42:10.773Z,2.63
2022-09-06T12:44:49.665Z,2.38
2022-09-06T12:47:21.768Z,3.05
2022-09-06T12:50:06.416Z,1.88
2022-09-06T12:52:33.439Z,2.08
2022-09-06T12:55:13.546Z,2.08
2022-09-06T12:57:48.483Z,2.88
2022-09-06T13:00:15.460Z,1.90
2022-09-06T13:02:56.742Z,2.20
2022-09-06T13:05:24.306Z,2.35
2022-09-06T13:07:54.328Z,1.90
2022-09-06T13:10:25.515Z,2.22
2022-09-06T13:12:58.322Z,2.22
2022-09-06T13:15:31.186Z,2.33
2022-09-06T13:18:35.538Z,2.10
2022-09-06T13:21:12.029Z,2.30
2022-09-06T13:23:51.041Z,2.15
2022-09-06T13:26:40.783Z,2.20
2022-09-06T13:29:10.820Z,2.15
2022-09-06T13:31:37.781Z,2.35
2022-09-06T13:34:04.659Z,2.10
2022-09-06T13:36:34.177Z,1.90
2022-09-06T13:39:04.466Z,1.98
2022-09-06T13:41:36.640Z,1.90
2022-09-06T13:44:21.361Z,2.00
2022-09-06T13:46:53.377Z,2.00
2022-09-06T13:49:20.269Z,1.92
2022-09-06T13:51:47.033Z,1.90
2022-09-06T13:54:14.624Z,1.90
2022-09-06T13:56:44.603Z,2.13
2022-09-06T13:59:16.060Z,1.85
2022-09-06T14:01:47.932Z,1.63
2022-09-06T14:04:19.636Z,1.50
2022-09-06T14:06:46.962Z,1.80
2022-09-06T14:09:13.924Z,1.63
2022-09-06T14:11:46.030Z,1.50
2022-09-06T14:14:15.077Z,2.10
2022-09-06T14:16:41.820Z,2.17
2022-09-06T14:19:10.815Z,2.10
2022-09-06T14:21:37.700Z,1.77
2022-09-06T14:24:04.852Z,1.77
2022-09-06T14:26:33.079Z,1.98
2022-09-06T14:29:02.431Z,2.08
2022-09-06T14:31:30.369Z,1.85
2022-09-06T14:33:57.465Z,2.00
2022-09-06T14:36:29.186Z,2.00
2022-09-06T14:39:00.491Z,1.60
2022-09-06T14:41:30.129Z,2.10
2022-09-06T14:43:58.628Z,2.00
2022-09-06T14:46:27.495Z,2.15
2022-09-06T14:49:07.441Z,2.05
2022-09-06T14:51:35.782Z,2.40
2022-09-06T14:54:06.627Z,2.50
2022-09-06T14:56:35.757Z,2.30
2022-09-06T14:59:03.039Z,2.67
2022-09-06T15:01:37.160Z,3.13
2022-09-06T15:04:06.182Z,2.53
2022-09-06T15:06:34.044Z,2.63
2022-09-06T15:09:01.049Z,2.20
2022-09-06T15:11:36.751Z,2.47
2022-09-06T15:14:06.497Z,2.15
2022-09-06T15:16:36.278Z,2.60
2022-09-06T15:19:05.993Z,2.25
2022-09-06T15:21:37.969Z,2.95
2022-09-06T15:24:11.000Z,3.05
2022-09-06T15:26:38.943Z,2.28
2022-09-06T15:29:07.778Z,1.90
2022-09-06T15:31:34.988Z,2.80
2022-09-06T15:34:02.905Z,2.63
2022-09-06T15:36:33.352Z,2.60
2022-09-06T15:39:01.729Z,2.92
2022-09-06T15:41:33.196Z,2.30
2022-09-06T15:44:01.886Z,2.40
2022-09-06T15:46:34.891Z,2.35
2022-09-06T15:49:06.095Z,2.30
2022-09-06T15:51:35.228Z,2.33
2022-09-06T15:54:04.946Z,2.50
2022-09-06T15:56:31.704Z,2.10
2022-09-06T15:58:58.483Z,2.13
2022-09-06T16:01:27.905Z,2.20
2022-09-06T16:04:03.569Z,2.20
2022-09-06T16:06:42.453Z,2.40
2022-09-06T16:09:14.281Z,2.22
2022-09-06T16:11:41.363Z,2.25
2022-09-06T16:14:10.886Z,2.05
2022-09-06T16:16:38.177Z,2.10
2022-09-06T16:19:05.011Z,2.10
2022-09-06T16:21:35.624Z,2.03
2022-09-06T16:24:08.075Z,2.45
2022-09-06T16:26:41.354Z,2.17
2022-09-06T16:29:09.958Z,1.90
2022-09-06T16:31:40.732Z,1.90
2022-09-06T16:34:08.841Z,1.80
2022-09-06T16:36:35.722Z,2.00
2022-09-06T16:39:02.968Z,2.13
2022-09-06T16:41:46.121Z,2.08
2022-09-06T16:44:16.493Z,2.38
2022-09-06T16:46:47.984Z,2.10
2022-09-06T16:49:21.640Z,2.45
2022-09-06T16:51:49.960Z,1.88
2022-09-06T16:54:18.025Z,2.28
2022-09-06T16:56:45.250Z,2.47
2022-09-06T16:59:17.224Z,1.80
2022-09-06T17:01:45.200Z,2.97
2022-09-06T17:04:12.978Z,2.35
2022-09-06T17:06:44.392Z,1.80
2022-09-06T17:09:18.823Z,2.20
2022-09-06T17:11:47.774Z,2.38
2022-09-06T17:14:14.786Z,2.22
2022-09-06T17:17:00.634Z,2.15
2022-09-06T17:19:27.926Z,2.25
2022-09-06T17:21:59.571Z,2.10
2022-09-06T17:24:26.950Z,2.00
2022-09-06T17:26:56.003Z,2.03
2022-09-06T17:29:26.534Z,1.58
2022-09-06T17:31:53.901Z,2.30
2022-09-06T17:34:21.133Z,1.83
2022-09-06T17:36:48.716Z,2.08
2022-09-06T17:39:18.290Z,1.90
2022-09-06T17:41:47.913Z,2.20
2022-09-06T17:44:17.575Z,2.10
2022-09-06T17:47:09.098Z,2.17
2022-09-06T17:49:34.334Z,2.08
2022-09-06T17:52:01.161Z,2.20
2022-09-06T17:54:28.307Z,2.33
2022-09-06T17:56:57.327Z,2.17
2022-09-06T17:59:34.193Z,2.05
2022-09-06T18:02:04.448Z,2.35
2022-09-06T18:04:31.234Z,2.50
2022-09-06T18:07:00.144Z,2.45
2022-09-06T18:09:26.988Z,2.75
2022-09-06T18:11:55.943Z,2.05
2022-09-06T18:14:23.190Z,2.45
2022-09-06T18:16:51.911Z,2.35
2022-09-06T18:19:22.141Z,2.55
2022-09-06T18:21:51.515Z,2.40
2022-09-06T18:24:20.580Z,2.45
2022-09-06T18:26:47.451Z,2.78
2022-09-06T18:29:16.762Z,2.42
2022-09-06T18:31:44.338Z,2.80
2022-09-06T18:34:13.864Z,2.58
2022-09-06T18:36:40.784Z,2.22
2022-09-06T18:39:07.957Z,2.92
2022-09-06T18:41:53.451Z,3.15
2022-09-06T18:44:20.354Z,4.28
2022-09-06T18:46:47.191Z,4.13
2022-09-06T18:49:15.224Z,3.38
2022-09-06T18:51:42.917Z,2.90
2022-09-06T18:54:12.006Z,2.85
2022-09-06T18:56:38.782Z,3.63
2022-09-06T18:59:06.412Z,3.38
2022-09-06T19:01:34.876Z,3.25
2022-09-06T19:04:02.403Z,3.72
2022-09-06T19:06:31.474Z,3.33
2022-09-06T19:09:03.233Z,2.72
2022-09-06T19:11:30.037Z,2.97
2022-09-06T19:13:57.844Z,3.25
2022-09-06T19:16:27.128Z,3.00
2022-09-06T19:18:55.985Z,3.13
2022-09-06T19:21:25.291Z,2.72
2022-09-06T19:24:03.990Z,2.95
2022-09-06T19:26:37.601Z,3.60
2022-09-06T19:31:35.569Z,3.55
2022-09-06T19:34:02.683Z,4.32
2022-09-06T19:36:30.360Z,3.22
2022-09-06T19:39:04.324Z,3.30
2022-09-06T19:41:39.506Z,3.53
2022-09-06T19:44:09.081Z,3.78
2022-09-06T19:46:37.364Z,3.50
2022-09-06T19:49:08.290Z,4.70
2022-09-06T19:51:36.736Z,3.58
2022-09-06T19:54:04.300Z,2.95
2022-09-06T19:56:34.262Z,3.22
2022-09-06T19:59:06.978Z,2.90
2022-09-06T20:01:37.623Z,3.47
2022-09-06T20:04:06.948Z,4.53
2022-09-06T20:06:36.841Z,3.20
2022-09-06T20:09:06.474Z,2.97
2022-09-06T20:11:34.908Z,3.67
2022-09-06T20:14:01.718Z,3.20
2022-09-06T20:16:28.790Z,2.60
2022-09-06T20:19:01.719Z,2.97
2022-09-06T20:21:29.014Z,2.90
2022-09-06T20:23:57.972Z,2.80
2022-09-06T20:26:26.317Z,2.65
2022-09-06T20:28:58.424Z,3.03
2022-09-06T20:31:29.409Z,3.20
2022-09-06T20:33:58.300Z,3.17
2022-09-06T20:36:25.192Z,2.60
2022-09-06T20:38:52.458Z,2.85
2022-09-06T20:41:21.313Z,3.25
2022-09-06T20:43:53.082Z,4.03
2022-09-06T20:46:22.366Z,3.60
2022-09-06T20:48:49.324Z,3.20
2022-09-06T20:51:21.444Z,3.25
2022-09-06T20:53:52.138Z,2.80
2022-09-06T20:56:21.259Z,3.70
2022-09-06T20:58:53.926Z,3.67
2022-09-06T21:01:25.902Z,3.27
2022-09-06T21:03:55.615Z,2.92
2022-09-06T21:06:23.785Z,3.20
2022-09-06T21:08:51.006Z,2.83
2022-09-06T21:11:18.566Z,2.90
2022-09-06T21:13:51.061Z,3.30
2022-09-06T21:16:23.938Z,3.13
2022-09-06T21:19:12.076Z,2.92
2022-09-06T21:21:39.756Z,3.50
2022-09-06T21:24:08.070Z,3.28
2022-09-06T21:26:35.495Z,2.70
2022-09-06T21:29:05.654Z,3.42
2022-09-06T21:31:34.717Z,3.10
2022-09-06T21:34:04.930Z,3.65
2022-09-06T21:36:34.733Z,3.35
2022-09-06T21:39:09.865Z,2.83
2022-09-06T21:41:40.797Z,3.05
2022-09-06T21:44:10.932Z,3.03
2022-09-06T21:46:43.022Z,2.67
2022-09-06T21:49:15.050Z,2.92
2022-09-06T21:51:42.190Z,2.72
2022-09-06T21:54:09.218Z,2.75
2022-09-06T21:56:37.611Z,2.65
2022-09-06T21:59:08.060Z,2.53
2022-09-06T22:01:37.237Z,2.40
2022-09-06T22:04:10.554Z,2.70
2022-09-06T22:06:37.883Z,2.80
2022-09-06T22:09:13.336Z,2.50
2022-09-06T22:11:42.729Z,2.65
2022-09-06T22:14:12.393Z,2.63
2022-09-06T22:16:40.554Z,2.80
2022-09-06T22:19:10.842Z,2.47
2022-09-06T22:21:38.646Z,2.97
2022-09-06T22:24:08.637Z,2.35
2022-09-06T22:26:39.830Z,2.53
2022-09-06T22:29:08.482Z,2.75
2022-09-06T22:31:38.922Z,2.90
2022-09-06T22:34:06.341Z,2.72
2022-09-06T22:36:34.058Z,2.70
2022-09-06T22:39:00.842Z,3.70
2022-09-06T22:41:30.422Z,2.53
2022-09-06T22:43:59.436Z,2.55
2022-09-06T22:46:26.226Z,2.75
2022-09-06T22:48:53.143Z,2.05
2022-09-06T22:51:20.079Z,2.42
2022-09-06T22:53:46.838Z,2.60
2022-09-06T22:56:15.737Z,2.22
2022-09-06T22:58:42.503Z,2.38
2022-09-06T23:01:11.708Z,2.70
2022-09-06T23:03:39.131Z,2.70
2022-09-06T23:06:08.937Z,2.97
2022-09-06T23:08:37.544Z,2.63
2022-09-06T23:11:13.298Z,2.60
2022-09-06T23:13:43.693Z,2.20
2022-09-06T23:16:15.700Z,3.03
2022-09-06T23:18:43.218Z,3.20
2022-09-06T23:21:13.405Z,2.47
2022-09-06T23:23:43.516Z,2.70
2022-09-06T23:26:15.691Z,2.85
2022-09-06T23:28:44.879Z,2.70
2022-09-06T23:31:15.172Z,2.50
2022-09-06T23:33:42.196Z,3.17
2022-09-06T23:36:11.221Z,2.67
2022-09-06T23:38:39.197Z,2.30
2022-09-06T23:41:10.203Z,2.35
2022-09-06T23:43:45.789Z,2.65
2022-09-06T23:46:14.716Z,2.22
2022-09-06T23:48:44.179Z,2.10
2022-09-06T23:51:12.057Z,1.90
2022-09-06T23:53:41.416Z,2.28
2022-09-06T23:56:08.406Z,1.65
2022-09-06T23:58:35.755Z,1.85
